createdAt,value
2023-02-01T00:01:09.425Z,5.70
2023-02-01T00:03:36.150Z,4.88
2023-02-01T00:06:02.938Z,4.00
2023-02-01T00:08:29.767Z,5.30
2023-02-01T00:11:01.395Z,4.18
2023-02-01T00:13:30.482Z,3.00
2023-02-01T00:16:04.188Z,6.82
2023-02-01T00:18:30.609Z,3.50
2023-02-01T00:20:56.980Z,3.75
2023-02-01T00:23:23.423Z,5.25
2023-02-01T00:25:49.838Z,6.80
2023-02-01T00:28:16.398Z,9.63
2023-02-01T00:30:42.908Z,5.88
2023-02-01T00:33:09.299Z,5.53
2023-02-01T00:35:36.591Z,4.88
2023-02-01T00:38:03.376Z,5.45
2023-02-01T00:40:29.817Z,4.82
2023-02-01T00:42:58.295Z,3.80
2023-02-01T00:45:24.683Z,6.57
2023-02-01T00:47:51.084Z,5.15
2023-02-01T00:50:17.546Z,11.85
2023-02-01T00:52:43.912Z,7.63
2023-02-01T00:55:10.311Z,11.63
2023-02-01T00:57:36.697Z,7.65
2023-02-01T01:00:04.262Z,10.65
2023-02-01T01:02:30.687Z,7.65
2023-02-01T01:04:57.110Z,10.15
2023-02-01T01:07:23.615Z,8.95
2023-02-01T01:09:50.033Z,7.95
2023-02-01T01:12:16.466Z,8.68
2023-02-01T01:14:42.867Z,10.90
2023-02-01T01:17:09.259Z,7.60
2023-02-01T01:19:35.811Z,10.73
2023-02-01T01:22:02.209Z,8.00
2023-02-01T01:24:28.626Z,6.93
2023-02-01T01:26:55.137Z,10.05
2023-02-01T01:29:21.617Z,10.70
2023-02-01T01:31:48.050Z,6.05
2023-02-01T01:34:14.438Z,5.50
2023-02-01T01:36:40.986Z,5.18
2023-02-01T01:39:08.521Z,5.40
2023-02-01T01:41:35.058Z,6.30
2023-02-01T01:44:04.591Z,10.65
2023-02-01T01:46:33.560Z,5.05
2023-02-01T01:49:10.069Z,8.82
2023-02-01T01:51:50.302Z,6.72
2023-02-01T01:54:38.317Z,7.47
2023-02-01T01:57:11.168Z,8.40
2023-02-01T01:59:41.191Z,4.70
2023-02-01T02:02:07.703Z,7.32
2023-02-01T02:04:35.434Z,6.95
2023-02-01T02:07:05.560Z,7.53
2023-02-01T02:09:32.357Z,6.47
2023-02-01T02:11:59.170Z,6.70
2023-02-01T02:14:26.865Z,9.68
2023-02-01T02:17:02.458Z,8.82
2023-02-01T02:19:49.964Z,8.70
2023-02-01T02:22:22.323Z,6.72
2023-02-01T02:25:17.365Z,7.60
2023-02-01T02:28:11.161Z,6.88
2023-02-01T02:30:52.409Z,5.72
2023-02-01T02:33:52.674Z,8.05
2023-02-01T02:36:22.014Z,7.05
2023-02-01T02:38:48.355Z,7.32
2023-02-01T02:41:39.338Z,6.28
2023-02-01T02:44:34.193Z,9.70
2023-02-01T02:47:25.011Z,8.27
2023-02-01T02:50:21.029Z,5.15
2023-02-01T02:53:17.003Z,6.22
2023-02-01T02:55:45.037Z,4.63
2023-02-01T02:58:31.968Z,9.68
2023-02-01T03:01:17.364Z,6.65
2023-02-01T03:04:23.585Z,5.30
2023-02-01T03:09:35.748Z,8.13
2023-02-01T03:12:28.679Z,10.77
2023-02-01T03:15:02.288Z,10.10
2023-02-01T03:17:35.940Z,11.50
2023-02-01T03:20:04.794Z,12.23
2023-02-01T03:22:34.945Z,7.30
2023-02-01T03:25:11.176Z,5.35
2023-02-01T03:27:47.597Z,5.15
2023-02-01T03:30:22.435Z,7.55
2023-02-01T03:33:01.712Z,11.20
2023-02-01T03:35:49.566Z,6.78
2023-02-01T03:41:19.981Z,5.38
2023-02-01T03:44:31.984Z,7.18
2023-02-01T03:47:26.176Z,6.13
2023-02-01T03:50:01.238Z,8.55
2023-02-01T03:52:36.165Z,6.97
2023-02-01T03:55:03.813Z,8.75
2023-02-01T03:57:37.084Z,7.20
2023-02-01T04:00:06.365Z,7.10
2023-02-01T04:04:59.284Z,6.85
2023-02-01T04:07:25.721Z,8.77
2023-02-01T04:09:52.110Z,8.15
2023-02-01T04:12:18.518Z,6.38
2023-02-01T04:14:44.918Z,12.10
2023-02-01T04:17:11.348Z,7.78
2023-02-01T04:19:37.799Z,7.03
2023-02-01T04:22:04.245Z,12.85
2023-02-01T04:24:30.706Z,6.13
2023-02-01T04:26:58.275Z,5.70
2023-02-01T04:29:25.923Z,13.95
2023-02-01T04:31:52.404Z,5.10
2023-02-01T04:34:18.958Z,8.27
2023-02-01T04:36:47.271Z,10.75
2023-02-01T04:39:13.971Z,10.45
2023-02-01T04:41:40.411Z,6.70
2023-02-01T04:44:07.190Z,7.70
2023-02-01T04:46:33.656Z,5.95
2023-02-01T04:49:00.287Z,8.95
2023-02-01T04:51:26.712Z,6.22
2023-02-01T04:53:53.360Z,4.95
2023-02-01T04:56:19.864Z,7.13
2023-02-01T04:58:46.257Z,11.13
2023-02-01T05:01:12.698Z,5.78
2023-02-01T05:03:39.222Z,6.03
2023-02-01T05:06:05.977Z,8.65
2023-02-01T05:08:33.369Z,5.72
2023-02-01T05:11:00.047Z,8.95
2023-02-01T05:13:44.987Z,8.18
2023-02-01T05:16:11.462Z,7.75
2023-02-01T05:18:37.955Z,4.97
2023-02-01T05:21:04.523Z,8.35
2023-02-01T05:23:31.059Z,6.22
2023-02-01T05:26:01.813Z,6.57
2023-02-01T05:28:29.264Z,11.52
2023-02-01T05:30:55.785Z,7.15
2023-02-01T05:33:23.359Z,7.18
2023-02-01T05:35:51.456Z,9.90
2023-02-01T05:38:17.911Z,6.72
2023-02-01T05:40:50.369Z,6.20
2023-02-01T05:43:16.878Z,6.13
2023-02-01T05:45:43.317Z,4.00
2023-02-01T05:48:09.756Z,7.03
2023-02-01T05:50:36.222Z,7.20
2023-02-01T05:53:02.642Z,6.05
2023-02-01T05:55:29.105Z,5.07
2023-02-01T05:57:55.500Z,6.70
2023-02-01T06:00:22.649Z,8.38
2023-02-01T06:02:49.139Z,10.02
2023-02-01T06:05:16.108Z,11.48
2023-02-01T06:07:43.062Z,12.07
2023-02-01T06:10:10.637Z,10.32
2023-02-01T06:12:37.485Z,10.23
2023-02-01T06:15:04.365Z,4.90
2023-02-01T06:17:30.828Z,11.82
2023-02-01T06:19:57.295Z,7.57
2023-02-01T06:22:24.059Z,7.88
2023-02-01T06:24:50.480Z,11.43
2023-02-01T06:27:17.130Z,7.00
2023-02-01T06:29:43.565Z,8.57
2023-02-01T06:32:11.246Z,10.57
2023-02-01T06:34:38.122Z,7.78
2023-02-01T06:37:04.518Z,6.15
2023-02-01T06:39:30.950Z,7.40
2023-02-01T06:41:57.441Z,5.65
2023-02-01T06:44:23.932Z,7.55
2023-02-01T06:46:50.698Z,10.60
2023-02-01T06:49:17.289Z,12.50
2023-02-01T06:51:43.821Z,4.22
2023-02-01T06:54:10.223Z,7.15
2023-02-01T06:56:36.740Z,4.55
2023-02-01T06:59:07.644Z,17.25
2023-02-01T07:01:35.002Z,5.95
2023-02-01T07:04:01.507Z,9.32
2023-02-01T07:06:28.038Z,13.57
2023-02-01T07:08:56.702Z,9.82
2023-02-01T07:11:23.633Z,7.07
2023-02-01T07:13:50.414Z,8.90
2023-02-01T07:16:20.370Z,11.65
2023-02-01T07:18:47.949Z,7.78
2023-02-01T07:21:14.736Z,5.00
2023-02-01T07:23:41.234Z,6.72
2023-02-01T07:26:11.071Z,4.00
2023-02-01T07:28:38.544Z,6.85
2023-02-01T07:31:31.498Z,7.90
2023-02-01T07:33:59.183Z,8.93
2023-02-01T07:36:25.898Z,6.05
2023-02-01T07:38:56.083Z,6.93
2023-02-01T07:41:22.869Z,10.23
2023-02-01T07:43:51.582Z,8.70
2023-02-01T07:46:18.232Z,6.20
2023-02-01T07:48:45.816Z,5.40
2023-02-01T07:51:15.231Z,9.88
2023-02-01T07:53:42.500Z,5.82
2023-02-01T07:56:17.607Z,3.83
2023-02-01T07:58:47.865Z,6.93
2023-02-01T08:01:21.355Z,7.10
2023-02-01T08:03:56.436Z,10.98
2023-02-01T08:06:24.782Z,10.65
2023-02-01T08:08:51.547Z,6.35
2023-02-01T08:11:19.487Z,9.20
2023-02-01T08:13:46.237Z,11.68
2023-02-01T08:16:14.721Z,5.18
2023-02-01T08:18:41.502Z,5.13
2023-02-01T08:21:26.513Z,6.88
2023-02-01T08:23:53.357Z,7.03
2023-02-01T08:26:25.737Z,6.07
2023-02-01T08:29:04.555Z,4.93
2023-02-01T08:31:31.976Z,6.40
2023-02-01T08:34:01.777Z,4.57
2023-02-01T08:36:30.651Z,6.25
2023-02-01T08:38:57.458Z,7.57
2023-02-01T08:41:26.813Z,4.22
2023-02-01T08:43:55.068Z,6.55
2023-02-01T08:46:22.460Z,6.13
2023-02-01T08:48:49.539Z,4.80
2023-02-01T08:51:19.292Z,9.00
2023-02-01T08:53:46.063Z,4.20
2023-02-01T08:56:14.343Z,5.88
2023-02-01T08:58:40.970Z,3.25
2023-02-01T09:01:10.488Z,5.68
2023-02-01T09:03:37.585Z,5.82
2023-02-01T09:06:06.058Z,8.85
2023-02-01T09:08:33.325Z,5.03
2023-02-01T09:11:06.571Z,7.00
2023-02-01T09:13:34.664Z,9.52
2023-02-01T09:16:01.306Z,5.80
2023-02-01T09:18:27.969Z,7.00
2023-02-01T09:20:54.529Z,12.10
2023-02-01T09:23:21.439Z,7.07
2023-02-01T09:25:51.206Z,5.13
2023-02-01T09:28:18.621Z,6.97
2023-02-01T09:30:45.251Z,6.25
2023-02-01T09:33:11.877Z,6.30
2023-02-01T09:35:39.221Z,6.70
2023-02-01T09:38:05.691Z,6.72
2023-02-01T09:40:35.151Z,8.25
2023-02-01T09:43:04.722Z,6.30
2023-02-01T09:45:45.629Z,6.40
2023-02-01T09:48:22.719Z,5.93
2023-02-01T09:50:55.045Z,6.68
2023-02-01T09:53:33.592Z,4.95
2023-02-01T09:56:16.450Z,13.77
2023-02-01T09:58:48.520Z,9.68
2023-02-01T10:01:23.165Z,7.43
2023-02-01T10:03:51.242Z,8.50
2023-02-01T10:06:42.628Z,7.18
2023-02-01T10:09:23.905Z,5.68
2023-02-01T10:11:58.011Z,7.25
2023-02-01T10:14:30.448Z,7.85
2023-02-01T10:17:15.779Z,8.68
2023-02-01T10:19:59.349Z,7.20
2023-02-01T10:23:03.720Z,8.10
2023-02-01T10:25:54.492Z,9.45
2023-02-01T10:28:22.917Z,13.10
2023-02-01T10:30:50.220Z,6.20
2023-02-01T10:33:32.411Z,11.10
2023-02-01T10:36:22.903Z,4.63
2023-02-01T10:38:50.739Z,8.38
2023-02-01T10:41:33.932Z,4.43
2023-02-01T10:44:04.629Z,2.70
2023-02-01T10:46:33.077Z,6.95
2023-02-01T10:49:03.535Z,8.32
2023-02-01T10:51:45.411Z,6.65
2023-02-01T10:54:17.793Z,4.68
2023-02-01T10:56:46.718Z,7.03
2023-02-01T10:59:21.795Z,5.97
2023-02-01T11:01:50.314Z,5.72
2023-02-01T11:04:21.100Z,6.45
2023-02-01T11:06:50.354Z,5.30
2023-02-01T11:09:23.855Z,3.83
2023-02-01T11:11:50.325Z,6.20
2023-02-01T11:14:27.847Z,4.88
2023-02-01T11:16:56.753Z,7.13
2023-02-01T11:19:23.279Z,8.13
2023-02-01T11:21:55.165Z,3.90
2023-02-01T11:24:26.275Z,4.95
2023-02-01T11:26:56.728Z,6.63
2023-02-01T11:29:30.594Z,4.38
2023-02-01T11:31:59.778Z,4.43
2023-02-01T11:34:38.414Z,6.20
2023-02-01T11:37:05.734Z,8.43
2023-02-01T11:39:35.085Z,6.45
2023-02-01T11:42:13.386Z,5.10
2023-02-01T11:44:46.272Z,6.80
2023-02-01T11:47:29.558Z,6.97
2023-02-01T11:49:58.588Z,6.07
2023-02-01T11:52:52.296Z,4.93
2023-02-01T11:55:48.016Z,4.80
2023-02-01T11:58:42.401Z,7.50
2023-02-01T12:01:51.660Z,6.78
2023-02-01T12:04:24.522Z,4.60
2023-02-01T12:07:20.192Z,9.98
2023-02-01T12:10:05.337Z,8.52
2023-02-01T12:13:13.103Z,5.47
2023-02-01T12:16:06.943Z,4.40
2023-02-01T12:19:09.470Z,6.10
2023-02-01T12:21:54.776Z,4.75
2023-02-01T12:24:33.787Z,4.70
2023-02-01T12:27:29.109Z,4.32
2023-02-01T12:30:36.387Z,3.45
2023-02-01T12:33:24.349Z,6.53
2023-02-01T12:36:10.196Z,8.15
2023-02-01T12:38:58.319Z,4.20
2023-02-01T12:41:30.866Z,2.45
2023-02-01T12:44:08.775Z,5.30
2023-02-01T12:46:44.379Z,5.80
2023-02-01T12:49:28.678Z,5.20
2023-02-01T12:52:14.277Z,9.00
2023-02-01T12:54:52.797Z,8.32
2023-02-01T12:57:23.553Z,4.43
2023-02-01T13:00:00.413Z,6.90
2023-02-01T13:02:41.510Z,5.13
2023-02-01T13:05:20.736Z,6.45
2023-02-01T13:08:17.133Z,6.00
2023-02-01T13:10:53.235Z,3.97
2023-02-01T13:13:40.157Z,5.00
2023-02-01T13:16:28.095Z,6.85
2023-02-01T13:19:01.659Z,3.63
2023-02-01T13:21:32.925Z,3.65
2023-02-01T13:23:59.603Z,3.38
2023-02-01T13:26:26.062Z,4.18
2023-02-01T13:28:57.200Z,3.50
2023-02-01T13:31:42.756Z,4.75
2023-02-01T13:34:55.113Z,4.18
2023-02-01T13:37:36.401Z,6.78
2023-02-01T13:40:21.583Z,6.78
2023-02-01T13:42:52.802Z,8.63
2023-02-01T13:45:24.172Z,3.45
2023-02-01T13:47:54.630Z,4.45
2023-02-01T13:50:30.719Z,5.03
2023-02-01T13:53:12.288Z,5.15
2023-02-01T13:55:45.364Z,4.82
2023-02-01T13:58:22.790Z,8.20
2023-02-01T14:00:52.169Z,5.90
2023-02-01T14:03:23.929Z,5.30
2023-02-01T14:05:50.445Z,6.85
2023-02-01T14:08:40.468Z,8.27
2023-02-01T14:11:07.030Z,6.03
2023-02-01T14:13:38.734Z,4.78
2023-02-01T14:16:05.506Z,4.95
2023-02-01T14:18:34.897Z,10.30
2023-02-01T14:21:31.090Z,5.93
2023-02-01T14:24:08.350Z,5.82
2023-02-01T14:26:34.780Z,5.35
2023-02-01T14:29:12.773Z,5.03
2023-02-01T14:31:51.265Z,5.80
2023-02-01T14:34:19.992Z,4.53
2023-02-01T14:37:05.509Z,8.68
2023-02-01T14:39:58.382Z,5.38
2023-02-01T14:42:39.316Z,8.10
2023-02-01T14:45:24.887Z,7.40
2023-02-01T14:48:07.287Z,5.45
2023-02-01T14:50:33.964Z,8.10
2023-02-01T14:53:09.176Z,7.05
2023-02-01T14:55:59.736Z,10.38
2023-02-01T14:58:52.444Z,5.40
2023-02-01T15:01:18.838Z,6.25
2023-02-01T15:03:51.497Z,7.05
2023-02-01T15:06:30.015Z,5.68
2023-02-01T15:09:01.318Z,6.88
2023-02-01T15:11:28.002Z,3.22
2023-02-01T15:13:56.590Z,5.40
2023-02-01T15:16:25.716Z,5.10
2023-02-01T15:19:09.719Z,2.70
2023-02-01T15:21:46.836Z,5.63
2023-02-01T15:24:27.049Z,4.78
2023-02-01T15:26:54.932Z,7.35
2023-02-01T15:29:23.429Z,6.50
2023-02-01T15:31:53.081Z,5.10
2023-02-01T15:34:21.452Z,4.57
2023-02-01T15:37:01.905Z,4.85
2023-02-01T15:39:31.929Z,4.80
2023-02-01T15:42:04.638Z,4.70
2023-02-01T15:44:43.690Z,3.15
2023-02-01T15:47:17.686Z,4.07
2023-02-01T15:49:48.237Z,3.28
2023-02-01T15:52:23.422Z,3.58
2023-02-01T15:54:54.403Z,3.95
2023-02-01T15:57:31.676Z,2.50
2023-02-01T16:00:06.554Z,0.68
2023-02-01T16:02:44.579Z,1.70
2023-02-01T16:05:39.895Z,2.03
2023-02-01T16:08:18.163Z,0.30
2023-02-01T16:10:46.754Z,1.05
2023-02-01T16:13:14.780Z,0.30
2023-02-01T16:15:41.613Z,0.68
2023-02-01T16:18:09.345Z,0.32
2023-02-01T16:20:37.052Z,1.00
2023-02-01T16:23:04.196Z,0.28
2023-02-01T16:25:31.166Z,0.30
2023-02-01T16:27:57.697Z,0.35
2023-02-01T16:30:25.299Z,0.40
2023-02-01T16:32:59.590Z,1.27
2023-02-01T16:35:38.138Z,0.52
2023-02-01T16:38:09.738Z,2.67
2023-02-01T16:40:36.600Z,1.80
2023-02-01T16:43:04.445Z,1.60
2023-02-01T16:45:30.998Z,0.98
2023-02-01T16:47:58.305Z,2.03
2023-02-01T16:50:26.841Z,0.73
2023-02-01T16:52:54.265Z,0.40
2023-02-01T16:55:23.091Z,1.20
2023-02-01T16:57:50.522Z,1.48
2023-02-01T17:00:24.492Z,2.92
2023-02-01T17:02:52.277Z,2.88
2023-02-01T17:05:18.774Z,1.90
2023-02-01T17:07:45.438Z,0.88
2023-02-01T17:10:33.297Z,0.75
2023-02-01T17:13:00.738Z,1.73
2023-02-01T17:15:32.267Z,0.52
2023-02-01T17:18:00.620Z,0.77
2023-02-01T17:20:29.843Z,0.88
2023-02-01T17:22:56.420Z,2.05
2023-02-01T17:25:23.984Z,0.40
2023-02-01T17:27:50.596Z,1.23
2023-02-01T17:30:17.973Z,0.68
2023-02-01T17:32:45.050Z,0.60
2023-02-01T17:35:23.656Z,1.30
2023-02-01T17:37:51.821Z,1.17
2023-02-01T17:40:19.308Z,0.60
2023-02-01T17:42:45.842Z,0.88
2023-02-01T17:45:25.303Z,0.70
2023-02-01T17:47:52.264Z,0.98
2023-02-01T17:50:18.725Z,0.63
2023-02-01T17:52:45.279Z,1.10
2023-02-01T17:55:25.473Z,1.95
2023-02-01T17:57:52.451Z,1.30
2023-02-01T18:00:19.780Z,2.83
2023-02-01T18:02:46.376Z,4.93
2023-02-01T18:05:34.449Z,4.43
2023-02-01T18:08:00.913Z,3.20
2023-02-01T18:10:27.385Z,2.25
2023-02-01T18:12:53.895Z,1.10
2023-02-01T18:15:23.617Z,2.13
2023-02-01T18:17:50.214Z,1.95
2023-02-01T18:20:19.636Z,0.77
2023-02-01T18:22:49.755Z,1.80
2023-02-01T18:25:20.867Z,1.20
2023-02-01T18:27:52.401Z,1.15
2023-02-01T18:30:20.635Z,1.52
2023-02-01T18:32:48.300Z,2.95
2023-02-01T18:35:22.820Z,1.80
2023-02-01T18:37:50.583Z,0.55
2023-02-01T18:40:25.129Z,3.95
2023-02-01T18:42:51.720Z,2.72
2023-02-01T18:45:21.717Z,2.92
2023-02-01T18:47:49.030Z,4.00
2023-02-01T18:50:16.953Z,2.88
2023-02-01T18:52:43.455Z,1.88
2023-02-01T18:55:11.301Z,2.70
2023-02-01T18:57:37.994Z,2.92
2023-02-01T19:00:08.047Z,1.02
2023-02-01T19:02:34.643Z,1.25
2023-02-01T19:05:01.153Z,1.77
2023-02-01T19:07:27.526Z,1.60
2023-02-01T19:09:54.602Z,2.45
2023-02-01T19:12:21.128Z,1.88
2023-02-01T19:14:47.569Z,4.45
2023-02-01T19:17:14.092Z,0.73
2023-02-01T19:19:41.993Z,2.58
2023-02-01T19:22:08.519Z,3.08
2023-02-01T19:24:34.975Z,1.73
2023-02-01T19:27:01.634Z,0.80
2023-02-01T19:29:28.146Z,0.70
2023-02-01T19:31:54.832Z,1.52
2023-02-01T19:34:21.372Z,1.17
2023-02-01T19:36:48.164Z,2.50
2023-02-01T19:39:14.833Z,2.92
2023-02-01T19:41:41.482Z,3.22
2023-02-01T19:44:08.565Z,1.20
2023-02-01T19:46:35.144Z,4.07
2023-02-01T19:49:01.667Z,2.35
2023-02-01T19:51:28.124Z,3.25
2023-02-01T19:53:54.623Z,4.25
2023-02-01T19:56:21.055Z,1.52
2023-02-01T19:58:47.641Z,2.55
2023-02-01T20:01:15.367Z,1.40
2023-02-01T20:03:41.940Z,2.72
2023-02-01T20:06:09.797Z,2.15
2023-02-01T20:08:36.289Z,2.75
2023-02-01T20:11:06.092Z,1.90
2023-02-01T20:13:34.594Z,1.27
2023-02-01T20:16:01.383Z,1.17
2023-02-01T20:18:28.645Z,5.07
2023-02-01T20:20:58.860Z,2.78
2023-02-01T20:23:27.403Z,1.90
2023-02-01T20:25:54.706Z,3.60
2023-02-01T20:28:21.157Z,2.00
2023-02-01T20:30:47.658Z,5.63
2023-02-01T20:33:14.052Z,5.13
2023-02-01T20:35:45.030Z,3.53
2023-02-01T20:38:11.583Z,3.60
2023-02-01T20:40:38.145Z,2.67
2023-02-01T20:43:04.542Z,2.58
2023-02-01T20:45:30.982Z,4.55
2023-02-01T20:47:57.345Z,2.88
2023-02-01T20:50:25.122Z,3.88
2023-02-01T20:52:51.582Z,4.05
2023-02-01T20:55:18.161Z,4.03
2023-02-01T20:57:44.566Z,2.22
2023-02-01T21:00:12.546Z,2.90
2023-02-01T21:02:39.087Z,5.35
2023-02-01T21:05:06.042Z,2.67
2023-02-01T21:07:32.531Z,2.97
2023-02-01T21:09:58.995Z,6.22
2023-02-01T21:12:25.452Z,3.78
2023-02-01T21:14:51.883Z,3.63
2023-02-01T21:17:18.351Z,5.03
2023-02-01T21:19:44.861Z,2.88
2023-02-01T21:22:12.655Z,4.03
2023-02-01T21:24:42.355Z,5.15
2023-02-01T21:27:10.158Z,4.13
2023-02-01T21:29:36.775Z,2.67
2023-02-01T21:32:04.006Z,4.50
2023-02-01T21:34:30.448Z,4.00
2023-02-01T21:36:56.903Z,0.82
2023-02-01T21:39:23.881Z,1.30
2023-02-01T21:42:09.217Z,3.72
2023-02-01T21:44:35.616Z,0.68
2023-02-01T21:47:02.196Z,1.80
2023-02-01T21:49:29.036Z,0.68
2023-02-01T21:51:57.568Z,0.43
2023-02-01T21:54:24.081Z,1.17
2023-02-01T21:56:50.506Z,2.90
2023-02-01T21:59:17.356Z,5.40
2023-02-01T22:01:44.089Z,4.97
2023-02-01T22:04:11.350Z,2.15
2023-02-01T22:06:41.843Z,1.83
2023-02-01T22:09:16.572Z,2.25
2023-02-01T22:11:43.087Z,1.10
2023-02-01T22:14:09.826Z,2.45
2023-02-01T22:16:36.331Z,3.30
2023-02-01T22:19:03.072Z,2.15
2023-02-01T22:21:29.657Z,3.42
2023-02-01T22:23:59.160Z,5.32
2023-02-01T22:26:27.421Z,3.08
2023-02-01T22:28:54.573Z,7.78
2023-02-01T22:31:21.469Z,6.32
2023-02-01T22:33:49.474Z,5.20
2023-02-01T22:36:18.076Z,5.97
2023-02-01T22:38:46.442Z,5.60
2023-02-01T22:41:13.615Z,9.88
2023-02-01T22:43:40.662Z,5.93
2023-02-01T22:46:15.152Z,6.97
2023-02-01T22:48:43.734Z,6.03
2023-02-01T22:51:39.272Z,4.28
2023-02-01T22:54:06.580Z,6.63
2023-02-01T22:56:37.341Z,4.45
2023-02-01T22:59:07.386Z,4.57
2023-02-01T23:01:34.738Z,5.97
2023-02-01T23:04:06.168Z,5.15
2023-02-01T23:06:33.740Z,5.05
2023-02-01T23:09:03.449Z,7.10
2023-02-01T23:11:29.841Z,4.30
2023-02-01T23:13:56.429Z,4.65
2023-02-01T23:16:23.601Z,4.38
2023-02-01T23:18:50.209Z,9.02
2023-02-01T23:21:19.879Z,5.43
2023-02-01T23:23:49.453Z,3.95
2023-02-01T23:26:16.660Z,7.35
2023-02-01T23:28:43.629Z,4.35
2023-02-01T23:31:12.983Z,9.73
2023-02-01T23:33:40.707Z,5.18
2023-02-01T23:36:11.035Z,4.82
2023-02-01T23:38:37.506Z,4.97
2023-02-01T23:41:06.245Z,6.10
2023-02-01T23:43:51.866Z,8.82
2023-02-01T23:46:18.799Z,4.85
2023-02-01T23:48:46.431Z,3.53
2023-02-01T23:51:13.785Z,3.50
2023-02-01T23:53:40.318Z,5.05
2023-02-01T23:56:07.743Z,5.47
2023-02-01T23:58:34.628Z,4.90
